Time;durP1;ratioP1;P1;durP2;ratioP2;P2;SDS_P1;SDS_P2;PMS_P1;PMS_P2;Temp;Humidity;BMP_temperature;BMP_pressure;BME280_temperature;BME280_humidity;BME280_pressure;Samples;Min_cycle;Max_cycle;Signal;HPM_P1;HPM_P2
2024/01/22 00:02:23;;;;;;;536.15;59.35;;;;;;;;;;10492074;28;20230;-75
2024/01/22 00:07:23;;;;;;;200.02;28.83;;;;;;;;;;10493803;28;20021;-75
2024/01/22 00:12:23;;;;;;;69.57;16.17;;;;;;;;;;10497899;28;20264;-75
2024/01/22 00:17:26;;;;;;;67.50;13.57;;;;;;;;;;10483181;28;20024;-75
2024/01/22 00:22:27;;;;;;;100.50;23.23;;;;;;;;;;10492274;28;20068;-75
2024/01/22 00:27:27;;;;;;;76.18;12.77;;;;;;;;;;10446444;28;20028;-77
2024/01/22 00:32:27;;;;;;;29.00;11.75;;;;;;;;;;10485633;28;20091;-75
2024/01/22 00:37:27;;;;;;;40.60;12.07;;;;;;;;;;10499595;28;20028;-75
2024/01/22 00:42:34;;;;;;;99.05;23.13;;;;;;;;;;10491743;28;20016;-74
2024/01/22 00:47:34;;;;;;;11.23;8.10;;;;;;;;;;10494015;28;20024;-76
2024/01/22 00:52:35;;;;;;;47.85;16.92;;;;;;;;;;10503514;28;20323;-77
2024/01/22 00:57:38;;;;;;;166.27;28.27;;;;;;;;;;10481903;28;20211;-75
2024/01/22 01:02:38;;;;;;;535.88;57.80;;;;;;;;;;10502182;28;20016;-76
2024/01/22 01:07:38;;;;;;;552.13;59.63;;;;;;;;;;10499201;28;20287;-76
2024/01/22 01:12:38;;;;;;;543.33;58.85;;;;;;;;;;10482355;28;20152;-75
2024/01/22 01:17:39;;;;;;;528.28;56.95;;;;;;;;;;10499358;28;20055;-75
2024/01/22 01:22:39;;;;;;;524.13;56.47;;;;;;;;;;10503077;28;20238;-75
2024/01/22 01:27:39;;;;;;;521.45;56.58;;;;;;;;;;10498361;28;20031;-75
2024/01/22 01:32:39;;;;;;;476.50;52.92;;;;;;;;;;10482373;28;20020;-75
2024/01/22 01:37:40;;;;;;;417.65;47.53;;;;;;;;;;10499893;28;20281;-76
2024/01/22 01:42:41;;;;;;;336.63;41.92;;;;;;;;;;10498851;28;20294;-75
2024/01/22 01:47:47;;;;;;;195.40;29.70;;;;;;;;;;10498932;28;20530;-77
2024/01/22 01:52:49;;;;;;;;;;;;;;;;;;10501423;28;20021;-77
2024/01/22 01:57:49;;;;;;;0.60;0.60;;;;;;;;;;10476591;28;20396;-77
2024/01/22 02:02:50;;;;;;;0.00;0.00;;;;;;;;;;10497378;28;20720;-76
2024/01/22 02:07:50;;;;;;;0.00;0.00;;;;;;;;;;10482227;28;20265;-76
2024/01/22 02:12:51;;;;;;;0.00;0.00;;;;;;;;;;10498118;28;20047;-76
2024/01/22 02:17:51;;;;;;;0.00;0.00;;;;;;;;;;10499151;28;19912;-75
2024/01/22 02:22:51;;;;;;;10.30;9.67;;;;;;;;;;10497744;28;20277;-76
2024/01/22 02:27:51;;;;;;;0.03;0.00;;;;;;;;;;10499032;28;20020;-76
2024/01/22 02:32:54;;;;;;;0.00;0.00;;;;;;;;;;10498985;28;20020;-76
2024/01/22 02:37:55;;;;;;;0.00;0.00;;;;;;;;;;10484236;28;20070;-75
2024/01/22 02:42:55;;;;;;;0.00;0.00;;;;;;;;;;10505004;28;20083;-73
2024/01/22 02:47:55;;;;;;;0.00;0.00;;;;;;;;;;10508057;28;19944;-73
2024/01/22 02:52:55;;;;;;;0.32;0.00;;;;;;;;;;10504931;28;20221;-73
2024/01/22 02:58:05;;;;;;;3.35;0.15;;;;;;;;;;10499801;28;20310;-72
2024/01/22 03:03:05;;;;;;;;;;;;;;;;;;10478630;28;19900;-73
2024/01/22 03:08:05;;;;;;;;;;;;;;;;;;10505930;28;19909;-73
2024/01/22 03:13:05;;;;;;;0.00;0.00;;;;;;;;;;10504305;28;19916;-74
2024/01/22 03:18:08;;;;;;;20.55;19.65;;;;;;;;;;10503863;28;19904;-74
2024/01/22 03:23:09;;;;;;;1.33;0.30;;;;;;;;;;10485558;28;20052;-75
2024/01/22 03:28:09;;;;;;;5.10;4.90;;;;;;;;;;10504064;28;20024;-75
2024/01/22 03:33:09;;;;;;;0.00;0.00;;;;;;;;;;10502182;28;20044;-74
2024/01/22 03:38:09;;;;;;;0.00;0.00;;;;;;;;;;10488581;28;20210;-74
2024/01/22 03:43:10;;;;;;;0.00;0.00;;;;;;;;;;10500703;28;20115;-74
2024/01/22 03:48:10;;;;;;;0.75;0.25;;;;;;;;;;10499350;28;20029;-74
2024/01/22 03:53:10;;;;;;;2.50;0.10;;;;;;;;;;10498380;28;20020;-74
2024/01/22 03:58:11;;;;;;;0.00;0.00;;;;;;;;;;10499058;28;20075;-74
2024/01/22 04:03:12;;;;;;;0.00;0.00;;;;;;;;;;10460741;28;20035;-74
2024/01/22 04:08:12;;;;;;;0.00;0.00;;;;;;;;;;10446091;28;20020;-75
2024/01/22 04:13:12;;;;;;;0.00;0.00;;;;;;;;;;10492753;28;20056;-74
2024/01/22 04:18:12;;;;;;;0.00;0.00;;;;;;;;;;10473516;28;20222;-74
2024/01/22 04:23:12;;;;;;;0.00;0.00;;;;;;;;;;10489867;28;20214;-73
2024/01/22 04:28:14;;;;;;;0.00;0.00;;;;;;;;;;10486712;28;20322;-74
2024/01/22 04:33:14;;;;;;;0.00;0.00;;;;;;;;;;10498465;28;20027;-73
2024/01/22 04:38:15;;;;;;;;;;;;;;;;;;10491807;28;20299;-72
2024/01/22 04:43:15;;;;;;;;;;;;;;;;;;10483472;28;19907;-74
2024/01/22 04:48:15;;;;;;;;;;;;;;;;;;10500158;28;19904;-74
2024/01/22 04:53:15;;;;;;;;;;;;;;;;;;10500103;28;20225;-74
2024/01/22 04:58:15;;;;;;;;;;;;;;;;;;10483863;28;19909;-74
2024/01/22 05:03:16;;;;;;;0.00;0.00;;;;;;;;;;10498268;28;19922;-74
2024/01/22 05:08:16;;;;;;;0.00;0.00;;;;;;;;;;10497355;28;20005;-74
2024/01/22 05:13:16;;;;;;;;;;;;;;;;;;10498423;28;20225;-73
2024/01/22 05:18:17;;;;;;;;;;;;;;;;;;10497047;28;20362;-73
2024/01/22 05:23:17;;;;;;;;;;;;;;;;;;10496710;28;20190;-73
2024/01/22 05:28:17;;;;;;;;;;;;;;;;;;10495195;28;19904;-73
2024/01/22 05:33:17;;;;;;;;;;;;;;;;;;10495820;28;19901;-74
2024/01/22 05:38:17;;;;;;;;;;;;;;;;;;10494836;28;20201;-74
2024/01/22 05:43:17;;;;;;;;;;;;;;;;;;10486219;28;19991;-76
2024/01/22 05:48:18;;;;;;;;;;;;;;;;;;10479898;28;19988;-78
2024/01/22 05:53:18;;;;;;;7.63;0.77;;;;;;;;;;10475391;28;20472;-76
2024/01/22 05:58:18;;;;;;;10.80;10.15;;;;;;;;;;10483722;28;20330;-77
2024/01/22 06:03:19;;;;;;;11.48;5.45;;;;;;;;;;10497275;28;20012;-74
2024/01/22 06:08:19;;;;;;;0.00;0.00;;;;;;;;;;10489424;28;20066;-77
2024/01/22 06:13:19;;;;;;;8.87;0.17;;;;;;;;;;10489767;28;20237;-77
2024/01/22 06:18:20;;;;;;;0.00;0.00;;;;;;;;;;10504754;28;20182;-78
2024/01/22 06:23:20;;;;;;;;;;;;;;;;;;10505673;28;20174;-77
2024/01/22 06:28:20;;;;;;;;;;;;;;;;;;10505199;28;20221;-78
2024/01/22 06:33:20;;;;;;;;;;;;;;;;;;10505122;28;19919;-76
2024/01/22 06:38:20;;;;;;;;;;;;;;;;;;10478600;28;20098;-77
2024/01/22 06:43:21;;;;;;;;;;;;;;;;;;10500923;28;19912;-76
2024/01/22 06:48:21;;;;;;;;;;;;;;;;;;10468618;28;19915;-76
2024/01/22 06:53:21;;;;;;;;;;;;;;;;;;10486183;28;19907;-76
2024/01/22 06:58:22;;;;;;;;;;;;;;;;;;10504173;28;19943;-76
2024/01/22 07:03:22;;;;;;;;;;;;;;;;;;10500144;28;20194;-76
2024/01/22 07:08:22;;;;;;;;;;;;;;;;;;10479263;28;19924;-76
2024/01/22 07:13:22;;;;;;;;;;;;;;;;;;10501342;28;20152;-78
2024/01/22 07:18:22;;;;;;;;;;;;;;;;;;10501018;28;19901;-76
2024/01/22 07:23:22;;;;;;;;;;;;;;;;;;10494118;28;19931;-76
2024/01/22 07:28:23;;;;;;;13.60;9.98;;;;;;;;;;10496890;28;20514;-77
2024/01/22 07:33:23;;;;;;;13.50;12.20;;;;;;;;;;10500289;28;20306;-78
2024/01/22 07:38:23;;;;;;;12.45;7.57;;;;;;;;;;10481206;28;20028;-76
2024/01/22 07:43:23;;;;;;;9.93;8.10;;;;;;;;;;10498742;28;20017;-77
2024/01/22 07:48:24;;;;;;;9.43;6.43;;;;;;;;;;10498788;28;20043;-79
2024/01/22 07:53:24;;;;;;;5.97;3.58;;;;;;;;;;10499513;28;20203;-79
2024/01/22 07:58:24;;;;;;;11.75;5.15;;;;;;;;;;10498923;28;20028;-77
2024/01/22 08:03:24;;;;;;;8.68;2.17;;;;;;;;;;10499596;28;20100;-77
2024/01/22 08:08:25;;;;;;;18.70;16.17;;;;;;;;;;10436937;28;1246985;-77
2024/01/22 08:13:25;;;;;;;10.20;3.35;;;;;;;;;;10500208;28;20286;-78
2024/01/22 08:18:26;;;;;;;;;;;;;;;;;;10465672;28;20262;-76
2024/01/22 08:23:26;;;;;;;;;;;;;;;;;;10480347;28;19904;-77
2024/01/22 08:28:27;;;;;;;;;;;;;;;;;;10500466;28;19923;-76
2024/01/22 08:33:27;;;;;;;0.00;0.00;;;;;;;;;;10499634;28;19920;-77
2024/01/22 08:38:27;;;;;;;0.00;0.00;;;;;;;;;;10499668;28;19985;-77
2024/01/22 08:43:27;;;;;;;0.00;0.00;;;;;;;;;;10499344;28;19904;-78
2024/01/22 08:48:30;;;;;;;14.63;13.85;;;;;;;;;;10499374;28;20353;-78
2024/01/22 08:53:30;;;;;;;;;;;;;;;;;;10500347;28;20028;-77
2024/01/22 08:58:31;;;;;;;;;;;;;;;;;;10500477;28;20194;-76
2024/01/22 09:03:31;;;;;;;;;;;;;;;;;;10499201;28;19904;-75
2024/01/22 09:08:33;;;;;;;;;;;;;;;;;;10499316;28;19980;-75
2024/01/22 09:13:33;;;;;;;;;;;;;;;;;;10499311;28;20183;-75
2024/01/22 09:18:33;;;;;;;;;;;;;;;;;;10481318;28;19936;-75
2024/01/22 09:23:33;;;;;;;;;;;;;;;;;;10499455;28;19904;-75
2024/01/22 09:28:33;;;;;;;;;;;;;;;;;;10474809;28;19908;-75
2024/01/22 09:33:33;;;;;;;;;;;;;;;;;;10499504;28;20075;-75
2024/01/22 09:38:34;;;;;;;;;;;;;;;;;;10497937;28;20277;-74
2024/01/22 09:43:34;;;;;;;;;;;;;;;;;;10499439;28;20100;-76
2024/01/22 09:48:35;;;;;;;0.10;0.10;;;;;;;;;;10499988;28;20402;-79
2024/01/22 09:53:36;;;;;;;0.00;0.00;;;;;;;;;;10489357;28;20189;-77
2024/01/22 09:58:36;;;;;;;;;;;;;;;;;;10506981;28;19900;-78
2024/01/22 10:03:36;;;;;;;;;;;;;;;;;;10506923;28;20327;-77
2024/01/22 10:08:36;;;;;;;;;;;;;;;;;;10495098;28;19924;-76
2024/01/22 10:13:37;;;;;;;;;;;;;;;;;;10506002;28;20216;-77
2024/01/22 10:18:37;;;;;;;;;;;;;;;;;;10506222;28;19936;-78
2024/01/22 10:23:40;;;;;;;;;;;;;;;;;;10505526;28;19912;-78
2024/01/22 10:28:40;;;;;;;;;;;;;;;;;;10505869;28;19916;-78
2024/01/22 10:33:40;;;;;;;;;;;;;;;;;;10505556;28;20183;-77
2024/01/22 10:38:40;;;;;;;;;;;;;;;;;;10497994;28;20205;-78
2024/01/22 10:43:40;;;;;;;;;;;;;;;;;;10487199;28;19904;-78
2024/01/22 10:48:42;;;;;;;;;;;;;;;;;;10454788;28;19909;-79
2024/01/22 10:53:42;;;;;;;;;;;;;;;;;;10504294;28;20776;-79
2024/01/22 10:58:42;;;;;;;;;;;;;;;;;;10503047;28;19923;-78
2024/01/22 11:03:42;;;;;;;;;;;;;;;;;;10503498;28;19942;-79
2024/01/22 11:08:42;;;;;;;;;;;;;;;;;;10503602;28;19912;-79
2024/01/22 11:13:42;;;;;;;;;;;;;;;;;;10503152;28;19958;-77
2024/01/22 11:18:42;;;;;;;;;;;;;;;;;;10484927;28;20027;-79
2024/01/22 11:23:43;;;;;;;;;;;;;;;;;;10503263;28;20125;-78
2024/01/22 11:28:43;;;;;;;;;;;;;;;;;;10502032;28;19912;-78
2024/01/22 11:33:43;;;;;;;;;;;;;;;;;;10490401;28;20102;-77
2024/01/22 11:38:43;;;;;;;;;;;;;;;;;;10495416;28;20212;-78
2024/01/22 11:43:44;;;;;;;;;;;;;;;;;;10494351;28;19908;-79
2024/01/22 11:48:44;;;;;;;;;;;;;;;;;;10502218;28;19904;-77
2024/01/22 11:53:44;;;;;;;;;;;;;;;;;;10502857;28;19939;-78
2024/01/22 11:58:44;;;;;;;;;;;;;;;;;;10501806;28;19900;-79
2024/01/22 12:03:44;;;;;;;0.50;0.50;;;;;;;;;;10501307;28;20611;-78
2024/01/22 12:08:54;;;;;;;0.43;0.38;;;;;;;;;;10501031;28;20036;-79
2024/01/22 12:13:54;;;;;;;6.03;4.95;;;;;;;;;;10496459;28;20024;-80
2024/01/22 12:18:57;;;;;;;10.75;10.00;;;;;;;;;;10500301;28;20036;-78
2024/01/22 12:23:57;;;;;;;8.40;7.90;;;;;;;;;;10485092;28;20016;-78
2024/01/22 12:28:57;;;;;;;10.98;9.85;;;;;;;;;;10501749;28;20033;-78
2024/01/22 12:34:12;;;;;;;13.30;12.27;;;;;;;;;;10499117;28;20012;-79
2024/01/22 12:39:18;;;;;;;9.55;8.80;;;;;;;;;;10500069;28;20229;-79
2024/01/22 12:44:18;;;;;;;10.73;9.75;;;;;;;;;;10500440;28;20196;-79
2024/01/22 12:49:19;;;;;;;10.32;6.88;;;;;;;;;;10499623;28;20012;-79
2024/01/22 12:54:19;;;;;;;4.25;4.03;;;;;;;;;;10499656;28;20015;-78
2024/01/22 12:59:19;;;;;;;0.00;0.00;;;;;;;;;;10500234;28;20065;-79
2024/01/22 13:04:19;;;;;;;;;;;;;;;;;;10500128;28;19941;-77
2024/01/22 13:09:20;;;;;;;;;;;;;;;;;;10499972;28;19916;-78
2024/01/22 13:14:20;;;;;;;;;;;;;;;;;;10499594;28;20159;-79
2024/01/22 13:19:20;;;;;;;;;;;;;;;;;;10484098;28;20374;-78
2024/01/22 13:24:20;;;;;;;;;;;;;;;;;;10466703;28;19942;-78
2024/01/22 13:29:20;;;;;;;;;;;;;;;;;;10498258;28;20231;-78
2024/01/22 13:34:20;;;;;;;;;;;;;;;;;;10498731;28;19920;-78
2024/01/22 13:39:20;;;;;;;;;;;;;;;;;;10484388;28;19951;-77
2024/01/22 13:44:21;;;;;;;;;;;;;;;;;;10457461;28;19912;-77
2024/01/22 13:49:21;;;;;;;;;;;;;;;;;;10477304;28;19912;-76
2024/01/22 13:54:21;;;;;;;;;;;;;;;;;;10498316;28;20374;-77
2024/01/22 13:59:21;;;;;;;;;;;;;;;;;;10480280;28;19905;-78
2024/01/22 14:04:22;;;;;;;;;;;;;;;;;;10498147;28;20011;-78
2024/01/22 14:09:22;;;;;;;;;;;;;;;;;;10479753;28;20261;-78
2024/01/22 14:14:22;;;;;;;;;;;;;;;;;;10497499;28;20451;-77
2024/01/22 14:19:22;;;;;;;;;;;;;;;;;;10497984;28;19912;-78
2024/01/22 14:24:22;;;;;;;;;;;;;;;;;;10498129;28;19928;-78
2024/01/22 14:29:22;;;;;;;;;;;;;;;;;;10497182;28;19916;-77
2024/01/22 14:34:23;;;;;;;;;;;;;;;;;;10499584;28;19905;-77
2024/01/22 14:39:23;;;;;;;;;;;;;;;;;;10500833;28;20207;-75
2024/01/22 14:44:23;;;;;;;;;;;;;;;;;;10460221;28;20214;-75
2024/01/22 14:49:23;;;;;;;;;;;;;;;;;;10504034;28;19951;-76
2024/01/22 14:54:23;;;;;;;;;;;;;;;;;;10505334;28;20028;-75
2024/01/22 14:59:23;;;;;;;;;;;;;;;;;;10491898;28;19976;-76
2024/01/22 15:04:23;;;;;;;;;;;;;;;;;;10495821;28;19924;-76
2024/01/22 15:09:23;;;;;;;;;;;;;;;;;;10496087;28;20106;-76
2024/01/22 15:14:26;;;;;;;;;;;;;;;;;;10494069;28;19916;-77
2024/01/22 15:19:26;;;;;;;;;;;;;;;;;;10504290;28;19919;-76
2024/01/22 15:24:26;;;;;;;;;;;;;;;;;;10491733;28;20102;-75
2024/01/22 15:29:27;;;;;;;;;;;;;;;;;;10500737;28;19915;-76
2024/01/22 15:34:27;;;;;;;;;;;;;;;;;;10502267;28;19919;-76
2024/01/22 15:39:27;;;;;;;;;;;;;;;;;;10502424;28;19959;-79
2024/01/22 15:44:27;;;;;;;;;;;;;;;;;;10488505;28;19953;-78
2024/01/22 15:49:28;;;;;;;;;;;;;;;;;;10483616;28;19917;-78
2024/01/22 15:54:28;;;;;;;;;;;;;;;;;;10484612;28;20194;-78
2024/01/22 15:59:28;;;;;;;;;;;;;;;;;;10499670;28;19950;-78
2024/01/22 16:04:28;;;;;;;;;;;;;;;;;;10497226;28;19952;-78
2024/01/22 16:09:28;;;;;;;;;;;;;;;;;;10490201;28;19971;-78
2024/01/22 16:14:29;;;;;;;;;;;;;;;;;;10476133;28;19920;-79
2024/01/22 16:19:29;;;;;;;;;;;;;;;;;;10500875;28;19914;-78
2024/01/22 16:24:29;;;;;;;;;;;;;;;;;;10482749;28;20035;-78
2024/01/22 16:29:29;;;;;;;;;;;;;;;;;;10472784;28;19916;-79
2024/01/22 16:34:29;;;;;;;;;;;;;;;;;;10500822;28;19912;-78
2024/01/22 16:39:37;;;;;;;;;;;;;;;;;;10500428;28;19939;-78
2024/01/22 16:44:37;;;;;;;;;;;;;;;;;;10500751;28;19939;-79
2024/01/22 16:49:37;;;;;;;;;;;;;;;;;;10500486;28;20106;-79
2024/01/22 16:54:37;;;;;;;;;;;;;;;;;;10486619;28;20095;-79
2024/01/22 16:59:38;;;;;;;;;;;;;;;;;;10481438;28;19911;-79
2024/01/22 17:04:38;;;;;;;;;;;;;;;;;;10499669;28;19927;-77
2024/01/22 17:09:38;;;;;;;;;;;;;;;;;;10481188;28;20274;-77
2024/01/22 17:14:39;;;;;;;;;;;;;;;;;;10477704;28;19947;-78
2024/01/22 17:19:41;;;;;;;;;;;;;;;;;;10498857;28;19904;-78
2024/01/22 17:24:42;;;;;;;;;;;;;;;;;;10499221;28;20141;-79
2024/01/22 17:29:42;;;;;;;;;;;;;;;;;;10499782;28;20171;-77
2024/01/22 17:34:42;;;;;;;;;;;;;;;;;;10499097;28;19972;-77
2024/01/22 17:39:42;;;;;;;;;;;;;;;;;;10499095;28;19919;-77
2024/01/22 17:44:43;;;;;;;;;;;;;;;;;;10499292;28;20091;-80
2024/01/22 17:49:43;;;;;;;;;;;;;;;;;;10487444;28;20268;-82
2024/01/22 17:54:43;;;;;;;;;;;;;;;;;;10499833;28;19905;-78
2024/01/22 17:59:43;;;;;;;;;;;;;;;;;;10499199;28;19904;-74
2024/01/22 18:04:43;;;;;;;;;;;;;;;;;;10499021;28;19949;-73
2024/01/22 18:09:43;;;;;;;;;;;;;;;;;;10501256;28;19984;-76
2024/01/22 18:14:43;;;;;;;;;;;;;;;;;;10488901;28;20129;-74
2024/01/22 18:19:44;;;;;;;;;;;;;;;;;;10506181;28;19913;-74
2024/01/22 18:24:44;;;;;;;;;;;;;;;;;;10499620;28;20158;-74
2024/01/22 18:29:44;;;;;;;;;;;;;;;;;;10503290;28;19948;-74
2024/01/22 18:34:44;;;;;;;;;;;;;;;;;;10506019;28;20090;-75
2024/01/22 18:39:44;;;;;;;;;;;;;;;;;;10505919;28;19971;-74
2024/01/22 18:44:44;;;;;;;;;;;;;;;;;;10503863;28;19912;-75
2024/01/22 18:49:46;;;;;;;;;;;;;;;;;;10484875;28;19947;-74
2024/01/22 18:54:46;;;;;;;;;;;;;;;;;;10487265;28;19928;-74
2024/01/22 18:59:46;;;;;;;;;;;;;;;;;;10500229;28;19924;-75
2024/01/22 19:04:46;;;;;;;;;;;;;;;;;;10498225;28;19912;-75
2024/01/22 19:09:47;;;;;;;;;;;;;;;;;;10487220;28;19916;-75
2024/01/22 19:14:47;;;;;;;;;;;;;;;;;;10499604;28;20180;-79
2024/01/22 19:19:47;;;;;;;;;;;;;;;;;;10473535;28;19904;-75
2024/01/22 19:24:50;;;;;;;;;;;;;;;;;;10493529;28;19919;-77
2024/01/22 19:29:50;;;;;;;;;;;;;;;;;;10498332;28;19955;-81
2024/01/22 19:34:50;;;;;;;;;;;;;;;;;;10489656;28;19927;-79
2024/01/22 19:39:50;;;;;;;;;;;;;;;;;;10485976;28;19904;-79
2024/01/22 19:44:50;;;;;;;;;;;;;;;;;;10495344;28;20266;-74
2024/01/22 19:49:50;;;;;;;;;;;;;;;;;;10490394;28;19909;-75
2024/01/22 19:54:51;;;;;;;;;;;;;;;;;;10490512;28;19987;-78
2024/01/22 19:59:51;;;;;;;;;;;;;;;;;;10489832;28;20133;-71
2024/01/22 20:04:51;;;;;;;;;;;;;;;;;;10487174;28;20118;-71
2024/01/22 20:09:52;;;;;;;;;;;;;;;;;;10491433;28;20357;-72
2024/01/22 20:14:52;;;;;;;;;;;;;;;;;;10472510;22;19945;-79
2024/01/22 20:19:52;;;;;;;;;;;;;;;;;;10353646;28;19922;-78
2024/01/22 20:24:54;;;;;;;;;;;;;;;;;;10381737;28;20027;-81
2024/01/22 20:29:54;;;;;;;;;;;;;;;;;;10378387;28;19917;-75
2024/01/22 20:34:54;;;;;;;;;;;;;;;;;;10395239;28;20100;-76
2024/01/22 20:39:54;;;;;;;;;;;;;;;;;;10379938;28;19919;-79
2024/01/22 20:44:56;;;;;;;;;;;;;;;;;;10380007;28;19909;-77
2024/01/22 20:49:56;;;;;;;;;;;;;;;;;;10405541;28;19913;-76
2024/01/22 20:54:56;;;;;;;;;;;;;;;;;;10397292;28;20376;-75
2024/01/22 20:59:56;;;;;;;;;;;;;;;;;;10379717;28;19909;-75
2024/01/22 21:04:56;;;;;;;;;;;;;;;;;;10378018;28;19964;-75
2024/01/22 21:09:57;;;;;;;;;;;;;;;;;;10349798;28;20412;-80
2024/01/22 21:14:57;;;;;;;;;;;;;;;;;;10348289;28;19929;-77
2024/01/22 21:19:57;;;;;;;;;;;;;;;;;;10329133;28;19938;-77
2024/01/22 21:24:57;;;;;;;;;;;;;;;;;;10333493;28;19909;-78
2024/01/22 21:29:57;;;;;;;;;;;;;;;;;;10351971;28;20523;-81
2024/01/22 21:34:58;;;;;;;;;;;;;;;;;;10396971;22;20218;-72
2024/01/22 21:39:58;;;;;;;;;;;;;;;;;;10475168;28;20247;-72
2024/01/22 21:44:58;;;;;;;;;;;;;;;;;;10495885;28;19912;-72
2024/01/22 21:49:58;;;;;;;;;;;;;;;;;;10507046;28;20114;-70
2024/01/22 21:54:59;;;;;;;;;;;;;;;;;;10505625;28;19905;-72
2024/01/22 22:00:00;;;;;;;;;;;;;;;;;;10506784;28;20117;-72
2024/01/22 22:05:00;;;;;;;;;;;;;;;;;;10506272;28;19916;-71
2024/01/22 22:10:00;;;;;;;;;;;;;;;;;;10506599;28;19920;-72
2024/01/22 22:15:00;;;;;;;;;;;;;;;;;;10507337;28;19911;-70
2024/01/22 22:20:00;;;;;;;;;;;;;;;;;;10506904;28;20121;-72
2024/01/22 22:25:00;;;;;;;;;;;;;;;;;;10504433;28;19904;-73
2024/01/22 22:30:03;;;;;;;;;;;;;;;;;;10506126;28;19916;-72
2024/01/22 22:35:03;;;;;;;;;;;;;;;;;;10505920;28;20106;-72
2024/01/22 22:40:13;;;;;;;;;;;;;;;;;;10506192;28;19904;-71
2024/01/22 22:45:13;;;;;;;;;;;;;;;;;;10496076;28;20063;-71
2024/01/22 22:50:13;;;;;;;;;;;;;;;;;;10504679;28;19920;-72
2024/01/22 22:55:13;;;;;;;;;;;;;;;;;;10504562;28;20099;-72
2024/01/22 23:00:13;;;;;;;;;;;;;;;;;;10505156;28;19905;-73
2024/01/22 23:05:13;;;;;;;;;;;;;;;;;;10504941;28;19951;-72
2024/01/22 23:10:13;;;;;;;;;;;;;;;;;;10488017;28;20063;-73
2024/01/22 23:15:13;;;;;;;;;;;;;;;;;;10505642;28;19917;-74
2024/01/22 23:20:14;;;;;;;;;;;;;;;;;;10506442;28;19905;-74
2024/01/22 23:25:14;;;;;;;;;;;;;;;;;;10503370;28;19979;-73
2024/01/22 23:30:14;;;;;;;;;;;;;;;;;;10503155;28;19942;-73
2024/01/22 23:35:14;;;;;;;;;;;;;;;;;;10504118;28;19948;-74
2024/01/22 23:40:35;;;;;;;;;;;;;;;;;;10505292;28;20173;-72
2024/01/22 23:45:35;;;;;;;;;;;;;;;;;;10505616;28;19996;-73
2024/01/22 23:50:36;;;;;;;;;;;;;;;;;;10502665;28;19908;-74
2024/01/22 23:55:36;;;;;;;;;;;;;;;;;;10503293;28;19913;-73
